sensor_id;sensor_type;location;lat;lon;timestamp;pressure;altitude;pressure_sealevel;temperature;humidity
35892;BME280;21993;42.672;23.296;2023-04-27T00:01:54;94402.03;;;11.03;48.10
35892;BME280;21993;42.672;23.296;2023-04-27T00:04:19;94418.50;;;10.95;48.28
35892;BME280;21993;42.672;23.296;2023-04-27T00:06:45;94419.91;;;10.90;48.05
35892;BME280;21993;42.672;23.296;2023-04-27T00:09:10;94422.38;;;10.91;48.04
35892;BME280;21993;42.672;23.296;2023-04-27T00:11:36;94425.00;;;10.91;47.88
35892;BME280;21993;42.672;23.296;2023-04-27T00:14:01;94433.81;;;11.00;47.96
35892;BME280;21993;42.672;23.296;2023-04-27T00:16:27;94425.84;;;10.92;48.19
35892;BME280;21993;42.672;23.296;2023-04-27T00:18:52;94426.91;;;10.99;48.02
35892;BME280;21993;42.672;23.296;2023-04-27T00:21:18;94428.34;;;10.93;48.21
35892;BME280;21993;42.672;23.296;2023-04-27T00:23:43;94425.56;;;10.95;48.01
35892;BME280;21993;42.672;23.296;2023-04-27T00:26:09;94432.38;;;10.88;48.11
35892;BME280;21993;42.672;23.296;2023-04-27T00:28:34;94434.53;;;10.92;48.04
35892;BME280;21993;42.672;23.296;2023-04-27T00:31:00;94432.31;;;10.97;47.90
35892;BME280;21993;42.672;23.296;2023-04-27T00:33:28;94432.31;;;10.97;48.07
35892;BME280;21993;42.672;23.296;2023-04-27T00:35:53;94426.38;;;10.95;47.92
35892;BME280;21993;42.672;23.296;2023-04-27T00:38:19;94427.88;;;10.98;47.73
35892;BME280;21993;42.672;23.296;2023-04-27T00:40:44;94433.28;;;10.96;47.70
35892;BME280;21993;42.672;23.296;2023-04-27T00:43:10;94421.84;;;10.88;47.84
35892;BME280;21993;42.672;23.296;2023-04-27T00:45:41;94432.22;;;10.89;47.80
35892;BME280;21993;42.672;23.296;2023-04-27T00:48:08;94432.66;;;10.85;48.10
35892;BME280;21993;42.672;23.296;2023-04-27T00:50:34;94437.34;;;10.81;48.08
35892;BME280;21993;42.672;23.296;2023-04-27T00:53:00;94425.06;;;10.82;47.49
35892;BME280;21993;42.672;23.296;2023-04-27T00:55:25;94434.31;;;10.86;48.00
35892;BME280;21993;42.672;23.296;2023-04-27T00:57:51;94433.91;;;10.81;47.51
35892;BME280;21993;42.672;23.296;2023-04-27T01:00:16;94431.13;;;10.82;47.95
35892;BME280;21993;42.672;23.296;2023-04-27T01:02:42;94435.84;;;10.79;48.28
35892;BME280;21993;42.672;23.296;2023-04-27T01:05:09;94436.28;;;10.74;48.32
35892;BME280;21993;42.672;23.296;2023-04-27T01:07:38;94448.59;;;10.64;48.35
35892;BME280;21993;42.672;23.296;2023-04-27T01:10:05;94447.50;;;10.57;48.52
35892;BME280;21993;42.672;23.296;2023-04-27T01:12:31;94446.03;;;10.45;48.79
35892;BME280;21993;42.672;23.296;2023-04-27T01:14:56;94451.97;;;10.47;48.82
35892;BME280;21993;42.672;23.296;2023-04-27T01:17:22;94446.72;;;10.47;48.90
35892;BME280;21993;42.672;23.296;2023-04-27T01:19:47;94454.28;;;10.50;48.85
35892;BME280;21993;42.672;23.296;2023-04-27T01:22:14;94447.00;;;10.43;48.77
35892;BME280;21993;42.672;23.296;2023-04-27T01:24:40;94447.56;;;10.37;48.68
35892;BME280;21993;42.672;23.296;2023-04-27T01:27:05;94458.06;;;10.37;48.79
35892;BME280;21993;42.672;23.296;2023-04-27T01:29:31;94462.19;;;10.21;49.14
35892;BME280;21993;42.672;23.296;2023-04-27T01:31:56;94461.91;;;10.33;48.82
35892;BME280;21993;42.672;23.296;2023-04-27T01:34:22;94457.09;;;10.29;48.68
35892;BME280;21993;42.672;23.296;2023-04-27T01:36:47;94461.91;;;10.14;49.33
35892;BME280;21993;42.672;23.296;2023-04-27T01:39:13;94458.16;;;10.16;48.93
35892;BME280;21993;42.672;23.296;2023-04-27T01:41:38;94463.84;;;10.12;48.90
35892;BME280;21993;42.672;23.296;2023-04-27T01:44:04;94457.91;;;10.20;48.97
35892;BME280;21993;42.672;23.296;2023-04-27T01:46:31;94463.31;;;10.18;49.16
35892;BME280;21993;42.672;23.296;2023-04-27T01:48:56;94461.53;;;10.09;48.72
35892;BME280;21993;42.672;23.296;2023-04-27T01:51:22;94467.84;;;10.06;49.36
35892;BME280;21993;42.672;23.296;2023-04-27T01:53:47;94470.75;;;9.94;49.42
35892;BME280;21993;42.672;23.296;2023-04-27T01:56:13;94471.84;;;9.91;48.67
35892;BME280;21993;42.672;23.296;2023-04-27T01:58:38;94469.09;;;9.93;49.23
35892;BME280;21993;42.672;23.296;2023-04-27T02:01:04;94461.25;;;9.93;49.14
35892;BME280;21993;42.672;23.296;2023-04-27T02:03:29;94468.00;;;9.95;49.30
35892;BME280;21993;42.672;23.296;2023-04-27T02:05:55;94465.22;;;9.97;49.31
35892;BME280;21993;42.672;23.296;2023-04-27T02:08:20;94466.06;;;9.97;49.18
35892;BME280;21993;42.672;23.296;2023-04-27T02:10:45;94461.09;;;10.04;48.94
35892;BME280;21993;42.672;23.296;2023-04-27T02:13:11;94465.78;;;10.00;48.79
35892;BME280;21993;42.672;23.296;2023-04-27T02:15:36;94469.94;;;9.93;49.07
35892;BME280;21993;42.672;23.296;2023-04-27T02:18:02;94468.00;;;9.95;49.29
35892;BME280;21993;42.672;23.296;2023-04-27T02:20:32;94474.47;;;9.72;50.00
35892;BME280;21993;42.672;23.296;2023-04-27T02:22:57;94471.00;;;9.81;49.42
35892;BME280;21993;42.672;23.296;2023-04-27T02:25:23;94467.31;;;9.93;48.98
35892;BME280;21993;42.672;23.296;2023-04-27T02:27:48;94474.34;;;9.93;48.75
35892;BME280;21993;42.672;23.296;2023-04-27T02:30:14;94469.25;;;10.01;48.73
35892;BME280;21993;42.672;23.296;2023-04-27T02:32:40;94472.81;;;10.00;49.10
35892;BME280;21993;42.672;23.296;2023-04-27T02:35:06;94478.63;;;10.03;48.71
35892;BME280;21993;42.672;23.296;2023-04-27T02:37:32;94472.13;;;9.98;48.62
35892;BME280;21993;42.672;23.296;2023-04-27T02:39:58;94468.13;;;9.94;48.83
35892;BME280;21993;42.672;23.296;2023-04-27T02:42:23;94476.41;;;9.89;48.46
35892;BME280;21993;42.672;23.296;2023-04-27T02:44:49;94480.97;;;9.97;48.76
35892;BME280;21993;42.672;23.296;2023-04-27T02:47:15;94477.50;;;10.06;48.33
35892;BME280;21993;42.672;23.296;2023-04-27T02:49:40;94477.50;;;10.06;48.24
35892;BME280;21993;42.672;23.296;2023-04-27T02:52:05;94484.69;;;9.94;48.46
35892;BME280;21993;42.672;23.296;2023-04-27T02:54:31;94482.47;;;9.99;48.64
35892;BME280;21993;42.672;23.296;2023-04-27T02:56:57;94488.00;;;10.06;48.43
35892;BME280;21993;42.672;23.296;2023-04-27T02:59:22;94478.63;;;9.84;48.37
35892;BME280;21993;42.672;23.296;2023-04-27T03:01:47;94478.47;;;9.76;48.64
35892;BME280;21993;42.672;23.296;2023-04-27T03:04:13;94490.34;;;9.90;48.47
35892;BME280;21993;42.672;23.296;2023-04-27T03:06:39;94492.28;;;9.97;48.79
35892;BME280;21993;42.672;23.296;2023-04-27T03:09:05;94488.81;;;10.06;48.20
35892;BME280;21993;42.672;23.296;2023-04-27T03:11:31;94492.13;;;9.89;47.78
35892;BME280;21993;42.672;23.296;2023-04-27T03:13:56;94492.81;;;9.81;48.30
35892;BME280;21993;42.672;23.296;2023-04-27T03:16:22;94489.22;;;9.82;47.90
35892;BME280;21993;42.672;23.296;2023-04-27T03:18:47;94499.16;;;9.88;47.60
35892;BME280;21993;42.672;23.296;2023-04-27T03:21:13;94495.19;;;9.94;47.85
35892;BME280;21993;42.672;23.296;2023-04-27T03:23:38;94500.13;;;9.78;48.27
35892;BME280;21993;42.672;23.296;2023-04-27T03:26:08;94499.59;;;9.84;47.96
35892;BME280;21993;42.672;23.296;2023-04-27T03:28:34;94500.56;;;9.93;47.55
35892;BME280;21993;42.672;23.296;2023-04-27T03:31:03;94503.19;;;10.02;47.75
35892;BME280;21993;42.672;23.296;2023-04-27T03:33:28;94509.81;;;9.97;47.82
35892;BME280;21993;42.672;23.296;2023-04-27T03:35:57;94517.66;;;9.97;47.81
35892;BME280;21993;42.672;23.296;2023-04-27T03:38:24;94508.41;;;9.83;48.43
35892;BME280;21993;42.672;23.296;2023-04-27T03:40:50;94501.94;;;9.77;48.45
35892;BME280;21993;42.672;23.296;2023-04-27T03:43:15;94508.13;;;9.76;48.21
35892;BME280;21993;42.672;23.296;2023-04-27T03:45:41;94520.41;;;9.76;48.53
35892;BME280;21993;42.672;23.296;2023-04-27T03:48:06;94517.22;;;9.82;48.24
35892;BME280;21993;42.672;23.296;2023-04-27T03:50:32;94519.59;;;9.85;48.06
35892;BME280;21993;42.672;23.296;2023-04-27T03:52:57;94522.22;;;9.75;47.95
35892;BME280;21993;42.672;23.296;2023-04-27T03:55:23;94522.63;;;9.80;47.81
35892;BME280;21993;42.672;23.296;2023-04-27T03:57:48;94525.53;;;9.77;48.53
35892;BME280;21993;42.672;23.296;2023-04-27T04:00:14;94528.13;;;9.77;47.85
35892;BME280;21993;42.672;23.296;2023-04-27T04:02:40;94526.50;;;9.86;48.00
35892;BME280;21993;42.672;23.296;2023-04-27T04:05:06;94538.78;;;9.85;47.63
35892;BME280;21993;42.672;23.296;2023-04-27T04:07:33;94547.75;;;9.93;47.50
35892;BME280;21993;42.672;23.296;2023-04-27T04:09:58;94548.97;;;9.79;47.60
35892;BME280;21993;42.672;23.296;2023-04-27T04:12:24;94542.22;;;9.76;48.38
35892;BME280;21993;42.672;23.296;2023-04-27T04:14:49;94550.75;;;9.78;48.04
35892;BME280;21993;42.672;23.296;2023-04-27T04:17:15;94556.50;;;9.63;47.46
35892;BME280;21993;42.672;23.296;2023-04-27T04:19:41;94549.34;;;9.65;48.65
35892;BME280;21993;42.672;23.296;2023-04-27T04:22:06;94557.38;;;9.73;48.35
35892;BME280;21993;42.672;23.296;2023-04-27T04:24:32;94556.84;;;9.79;47.52
35892;BME280;21993;42.672;23.296;2023-04-27T04:26:57;94563.72;;;9.80;47.65
35892;BME280;21993;42.672;23.296;2023-04-27T04:29:23;94555.47;;;9.84;47.58
35892;BME280;21993;42.672;23.296;2023-04-27T04:31:49;94565.09;;;9.74;47.94
35892;BME280;21993;42.672;23.296;2023-04-27T04:34:14;94570.09;;;9.87;47.59
35892;BME280;21993;42.672;23.296;2023-04-27T04:36:40;94572.56;;;9.88;47.49
35892;BME280;21993;42.672;23.296;2023-04-27T04:39:05;94573.41;;;9.89;48.07
35892;BME280;21993;42.672;23.296;2023-04-27T04:41:31;94578.94;;;9.86;47.72
35892;BME280;21993;42.672;23.296;2023-04-27T04:43:57;94578.53;;;10.00;47.91
35892;BME280;21993;42.672;23.296;2023-04-27T04:46:23;94575.91;;;10.00;48.00
35892;BME280;21993;42.672;23.296;2023-04-27T04:48:49;94581.03;;;10.11;47.83
35892;BME280;21993;42.672;23.296;2023-04-27T04:51:15;94578.97;;;10.05;47.77
35892;BME280;21993;42.672;23.296;2023-04-27T04:53:41;94587.50;;;9.98;47.64
35892;BME280;21993;42.672;23.296;2023-04-27T04:56:11;94579.78;;;10.06;47.93
35892;BME280;21993;42.672;23.296;2023-04-27T04:58:37;94591.91;;;9.97;48.09
35892;BME280;21993;42.672;23.296;2023-04-27T05:01:03;94583.66;;;10.02;48.07
35892;BME280;21993;42.672;23.296;2023-04-27T05:03:28;94598.72;;;10.19;47.93
35892;BME280;21993;42.672;23.296;2023-04-27T05:05:53;94595.38;;;10.17;47.64
35892;BME280;21993;42.672;23.296;2023-04-27T05:08:19;94603.03;;;10.30;47.00
35892;BME280;21993;42.672;23.296;2023-04-27T05:10:51;94607.84;;;10.25;47.44
35892;BME280;21993;42.672;23.296;2023-04-27T05:13:17;94598.47;;;10.22;47.59
35892;BME280;21993;42.672;23.296;2023-04-27T05:15:42;94603.59;;;10.33;47.70
35892;BME280;21993;42.672;23.296;2023-04-27T05:18:08;94612.44;;;10.32;47.45
35892;BME280;21993;42.672;23.296;2023-04-27T05:20:34;94616.31;;;10.38;47.55
35892;BME280;21993;42.672;23.296;2023-04-27T05:23:00;94605.50;;;10.22;47.69
35892;BME280;21993;42.672;23.296;2023-04-27T05:25:28;94617.09;;;10.19;47.51
35892;BME280;21993;42.672;23.296;2023-04-27T05:27:53;94620.16;;;10.24;47.89
35892;BME280;21993;42.672;23.296;2023-04-27T05:30:19;94623.22;;;10.29;48.29
35892;BME280;21993;42.672;23.296;2023-04-27T05:32:44;94617.81;;;10.31;48.50
35892;BME280;21993;42.672;23.296;2023-04-27T05:35:10;94612.44;;;10.32;48.26
35892;BME280;21993;42.672;23.296;2023-04-27T05:37:35;94630.75;;;10.13;48.11
35892;BME280;21993;42.672;23.296;2023-04-27T05:40:00;94629.38;;;10.09;47.84
35892;BME280;21993;42.672;23.296;2023-04-27T05:42:26;94618.72;;;10.01;48.26
35892;BME280;21993;42.672;23.296;2023-04-27T05:44:51;94626.88;;;10.17;47.70
35892;BME280;21993;42.672;23.296;2023-04-27T05:47:17;94628.81;;;10.15;47.94
35892;BME280;21993;42.672;23.296;2023-04-27T05:49:42;94629.97;;;10.22;47.62
35892;BME280;21993;42.672;23.296;2023-04-27T05:52:08;94629.63;;;10.15;47.73
35892;BME280;21993;42.672;23.296;2023-04-27T05:54:33;94627.84;;;10.16;48.15
35892;BME280;21993;42.672;23.296;2023-04-27T05:56:58;94642.09;;;10.23;48.19
35892;BME280;21993;42.672;23.296;2023-04-27T05:59:24;94626.19;;;10.15;48.28
35892;BME280;21993;42.672;23.296;2023-04-27T06:01:49;94636.13;;;10.21;48.00
35892;BME280;21993;42.672;23.296;2023-04-27T06:04:15;94626.47;;;10.22;48.62
35892;BME280;21993;42.672;23.296;2023-04-27T06:06:40;94635.91;;;10.34;48.24
35892;BME280;21993;42.672;23.296;2023-04-27T06:09:05;94632.44;;;10.33;48.26
35892;BME280;21993;42.672;23.296;2023-04-27T06:11:31;94634.13;;;10.44;48.17
35892;BME280;21993;42.672;23.296;2023-04-27T06:13:56;94632.34;;;10.35;48.38
35892;BME280;21993;42.672;23.296;2023-04-27T06:16:22;94638.66;;;10.32;48.33
35892;BME280;21993;42.672;23.296;2023-04-27T06:18:49;94625.44;;;10.43;48.30
35892;BME280;21993;42.672;23.296;2023-04-27T06:21:14;94626.66;;;10.39;48.54
35892;BME280;21993;42.672;23.296;2023-04-27T06:23:40;94628.06;;;10.43;48.38
35892;BME280;21993;42.672;23.296;2023-04-27T06:26:06;94626.41;;;10.42;48.83
35892;BME280;21993;42.672;23.296;2023-04-27T06:28:31;94629.28;;;10.49;48.31
35892;BME280;21993;42.672;23.296;2023-04-27T06:30:56;94624.03;;;10.59;48.16
35892;BME280;21993;42.672;23.296;2023-04-27T06:33:22;94632.50;;;10.53;48.23
35892;BME280;21993;42.672;23.296;2023-04-27T06:35:47;94630.69;;;10.43;51.48
35892;BME280;21993;42.672;23.296;2023-04-27T06:38:12;94621.84;;;10.54;48.58
35892;BME280;21993;42.672;23.296;2023-04-27T06:40:38;94625.72;;;10.69;47.92
35892;BME280;21993;42.672;23.296;2023-04-27T06:43:04;94620.34;;;10.71;48.12
35892;BME280;21993;42.672;23.296;2023-04-27T06:45:29;94622.41;;;10.77;48.60
35892;BME280;21993;42.672;23.296;2023-04-27T06:47:55;94617.56;;;11.02;47.26
35892;BME280;21993;42.672;23.296;2023-04-27T06:50:21;94614.19;;;11.09;46.94
35892;BME280;21993;42.672;23.296;2023-04-27T06:52:46;94612.91;;;11.33;45.64
35892;BME280;21993;42.672;23.296;2023-04-27T06:55:11;94619.59;;;11.27;46.58
35892;BME280;21993;42.672;23.296;2023-04-27T06:57:37;94616.22;;;11.44;46.21
35892;BME280;21993;42.672;23.296;2023-04-27T07:00:03;94610.78;;;11.55;46.06
35892;BME280;21993;42.672;23.296;2023-04-27T07:02:29;94623.47;;;11.60;46.07
35892;BME280;21993;42.672;23.296;2023-04-27T07:04:54;94603.25;;;11.70;45.15
35892;BME280;21993;42.672;23.296;2023-04-27T07:07:20;94606.84;;;11.69;44.75
35892;BME280;21993;42.672;23.296;2023-04-27T07:09:45;94610.69;;;11.38;45.85
35892;BME280;21993;42.672;23.296;2023-04-27T07:12:11;94600.03;;;11.39;45.63
35892;BME280;21993;42.672;23.296;2023-04-27T07:14:36;94606.25;;;11.38;46.35
35892;BME280;21993;42.672;23.296;2023-04-27T07:17:01;94607.91;;;11.39;45.61
35892;BME280;21993;42.672;23.296;2023-04-27T07:19:27;94604.13;;;11.51;45.42
35892;BME280;21993;42.672;23.296;2023-04-27T07:21:52;94611.06;;;11.52;45.58
35892;BME280;21993;42.672;23.296;2023-04-27T07:24:18;94606.34;;;11.56;45.47
35892;BME280;21993;42.672;23.296;2023-04-27T07:26:44;94597.16;;;11.70;45.85
35892;BME280;21993;42.672;23.296;2023-04-27T07:29:10;94597.84;;;11.72;45.72
35892;BME280;21993;42.672;23.296;2023-04-27T07:31:37;94599.72;;;11.89;44.43
35892;BME280;21993;42.672;23.296;2023-04-27T07:34:02;94598.31;;;11.95;45.27
35892;BME280;21993;42.672;23.296;2023-04-27T07:36:28;94593.81;;;12.05;45.40
35892;BME280;21993;42.672;23.296;2023-04-27T07:38:53;94595.41;;;12.16;45.05
35892;BME280;21993;42.672;23.296;2023-04-27T07:41:19;94593.34;;;12.19;44.76
35892;BME280;21993;42.672;23.296;2023-04-27T07:43:45;94589.84;;;12.19;44.36
35892;BME280;21993;42.672;23.296;2023-04-27T07:46:12;94590.53;;;12.21;44.63
35892;BME280;21993;42.672;23.296;2023-04-27T07:48:38;94593.19;;;12.38;44.74
35892;BME280;21993;42.672;23.296;2023-04-27T07:51:03;94590.88;;;12.53;42.63
35892;BME280;21993;42.672;23.296;2023-04-27T07:53:29;94594.00;;;12.75;41.67
35892;BME280;21993;42.672;23.296;2023-04-27T07:55:55;94587.41;;;12.71;43.20
35892;BME280;21993;42.672;23.296;2023-04-27T07:58:20;94591.38;;;12.75;43.59
35892;BME280;21993;42.672;23.296;2023-04-27T08:00:47;94590.38;;;12.93;43.41
35892;BME280;21993;42.672;23.296;2023-04-27T08:03:13;94587.28;;;12.98;42.57
35892;BME280;21993;42.672;23.296;2023-04-27T08:05:38;94594.53;;;12.96;42.59
35892;BME280;21993;42.672;23.296;2023-04-27T08:08:04;94586.22;;;13.09;42.66
35892;BME280;21993;42.672;23.296;2023-04-27T08:10:29;94603.47;;;13.21;41.31
35892;BME280;21993;42.672;23.296;2023-04-27T08:12:55;94604.41;;;13.38;41.85
35892;BME280;21993;42.672;23.296;2023-04-27T08:15:20;94600.63;;;13.40;41.80
35892;BME280;21993;42.672;23.296;2023-04-27T08:17:46;94590.63;;;13.52;41.02
35892;BME280;21993;42.672;23.296;2023-04-27T08:20:12;94590.44;;;13.71;40.65
35892;BME280;21993;42.672;23.296;2023-04-27T08:22:39;94591.38;;;13.70;40.86
35892;BME280;21993;42.672;23.296;2023-04-27T08:25:05;94589.75;;;13.69;41.44
35892;BME280;21993;42.672;23.296;2023-04-27T08:27:31;94592.28;;;13.87;40.95
35892;BME280;21993;42.672;23.296;2023-04-27T08:29:57;94595.09;;;13.86;40.98
35892;BME280;21993;42.672;23.296;2023-04-27T08:32:25;94594.75;;;13.80;40.75
35892;BME280;21993;42.672;23.296;2023-04-27T08:34:50;94588.66;;;13.80;41.08
35892;BME280;21993;42.672;23.296;2023-04-27T08:37:16;94600.69;;;13.83;40.73
35892;BME280;21993;42.672;23.296;2023-04-27T08:39:42;94594.72;;;13.72;40.72
35892;BME280;21993;42.672;23.296;2023-04-27T08:42:11;94588.06;;;14.02;39.90
35892;BME280;21993;42.672;23.296;2023-04-27T08:44:41;94589.28;;;14.16;40.35
35892;BME280;21993;42.672;23.296;2023-04-27T08:47:07;94591.41;;;14.21;40.34
35892;BME280;21993;42.672;23.296;2023-04-27T08:49:34;94595.06;;;14.20;40.44
35892;BME280;21993;42.672;23.296;2023-04-27T08:52:00;94590.94;;;14.17;39.75
35892;BME280;21993;42.672;23.296;2023-04-27T08:54:26;94588.78;;;14.13;39.44
35892;BME280;21993;42.672;23.296;2023-04-27T08:56:51;94583.19;;;14.24;39.54
35892;BME280;21993;42.672;23.296;2023-04-27T08:59:17;94595.06;;;14.28;39.48
35892;BME280;21993;42.672;23.296;2023-04-27T09:01:46;94586.34;;;14.35;39.35
35892;BME280;21993;42.672;23.296;2023-04-27T09:04:13;94592.00;;;14.41;39.00
35892;BME280;21993;42.672;23.296;2023-04-27T09:06:39;94587.88;;;14.38;38.85
35892;BME280;21993;42.672;23.296;2023-04-27T09:09:05;94584.72;;;14.43;39.19
35892;BME280;21993;42.672;23.296;2023-04-27T09:11:37;94588.88;;;14.45;38.22
35892;BME280;21993;42.672;23.296;2023-04-27T09:14:15;94586.59;;;14.50;38.78
35892;BME280;21993;42.672;23.296;2023-04-27T09:16:41;94581.78;;;14.54;38.77
35892;BME280;21993;42.672;23.296;2023-04-27T09:19:06;94581.78;;;14.54;38.93
35892;BME280;21993;42.672;23.296;2023-04-27T09:21:32;94579.50;;;14.51;38.43
35892;BME280;21993;42.672;23.296;2023-04-27T09:24:09;94580.97;;;14.53;38.57
35892;BME280;21993;42.672;23.296;2023-04-27T09:26:36;94584.47;;;14.70;38.35
35892;BME280;21993;42.672;23.296;2023-04-27T09:29:01;94577.22;;;14.64;38.94
35892;BME280;21993;42.672;23.296;2023-04-27T09:31:34;94561.84;;;14.84;38.23
35892;BME280;21993;42.672;23.296;2023-04-27T09:34:00;94567.31;;;14.90;36.98
35892;BME280;21993;42.672;23.296;2023-04-27T09:36:26;94568.28;;;15.06;36.80
35892;BME280;21993;42.672;23.296;2023-04-27T09:38:52;94560.19;;;14.99;37.03
35892;BME280;21993;42.672;23.296;2023-04-27T09:41:18;94555.91;;;14.90;37.44
35892;BME280;21993;42.672;23.296;2023-04-27T09:43:44;94553.75;;;14.85;37.53
35892;BME280;21993;42.672;23.296;2023-04-27T09:46:12;94549.47;;;14.76;37.87
35892;BME280;21993;42.672;23.296;2023-04-27T09:48:38;94557.22;;;14.86;37.72
35892;BME280;21993;42.672;23.296;2023-04-27T09:51:04;94550.44;;;14.83;37.33
35892;BME280;21993;42.672;23.296;2023-04-27T10:01:44;94551.59;;;15.13;35.69
35892;BME280;21993;42.672;23.296;2023-04-27T10:06:57;94548.25;;;15.19;36.57
35892;BME280;21993;42.672;23.296;2023-04-27T10:09:24;94537.38;;;15.14;35.98
35892;BME280;21993;42.672;23.296;2023-04-27T10:11:52;94542.31;;;15.17;36.46
35892;BME280;21993;42.672;23.296;2023-04-27T10:14:19;94549.88;;;15.37;36.45
35892;BME280;21993;42.672;23.296;2023-04-27T10:16:54;94541.13;;;15.36;35.58
35892;BME280;21993;42.672;23.296;2023-04-27T10:19:21;94542.44;;;15.48;35.39
35892;BME280;21993;42.672;23.296;2023-04-27T10:21:56;94550.06;;;15.35;35.30
35892;BME280;21993;42.672;23.296;2023-04-27T10:24:38;94540.50;;;15.26;35.07
35892;BME280;21993;42.672;23.296;2023-04-27T10:27:08;94534.88;;;15.13;36.51
35892;BME280;21993;42.672;23.296;2023-04-27T10:32:05;94537.69;;;15.28;36.13
35892;BME280;21993;42.672;23.296;2023-04-27T10:34:33;94543.94;;;15.35;36.25
35892;BME280;21993;42.672;23.296;2023-04-27T10:37:09;94539.28;;;15.45;35.34
35892;BME280;21993;42.672;23.296;2023-04-27T10:39:39;94536.16;;;15.41;35.75
35892;BME280;21993;42.672;23.296;2023-04-27T10:42:06;94546.94;;;15.40;35.16
35892;BME280;21993;42.672;23.296;2023-04-27T10:44:32;94539.09;;;15.55;34.97
35892;BME280;21993;42.672;23.296;2023-04-27T10:47:17;94534.47;;;15.65;35.38
35892;BME280;21993;42.672;23.296;2023-04-27T10:49:46;94544.06;;;15.66;35.91
35892;BME280;21993;42.672;23.296;2023-04-27T10:52:12;94523.72;;;15.66;35.27
35892;BME280;21993;42.672;23.296;2023-04-27T10:54:37;94535.41;;;15.80;34.88
35892;BME280;21993;42.672;23.296;2023-04-27T10:57:09;94521.66;;;15.85;34.40
35892;BME280;21993;42.672;23.296;2023-04-27T10:59:52;94531.78;;;15.81;34.80
35892;BME280;21993;42.672;23.296;2023-04-27T11:02:25;94538.00;;;15.88;34.20
35892;BME280;21993;42.672;23.296;2023-04-27T11:04:51;94522.66;;;15.84;34.56
35892;BME280;21993;42.672;23.296;2023-04-27T11:07:26;94524.28;;;15.93;34.32
35892;BME280;21993;42.672;23.296;2023-04-27T11:09:53;94513.00;;;15.99;34.44
35892;BME280;21993;42.672;23.296;2023-04-27T11:12:19;94528.56;;;15.94;34.79
35892;BME280;21993;42.672;23.296;2023-04-27T11:14:45;94518.28;;;15.99;34.70
35892;BME280;21993;42.672;23.296;2023-04-27T11:17:11;94522.88;;;16.05;34.09
35892;BME280;21993;42.672;23.296;2023-04-27T11:19:47;94526.63;;;16.19;33.99
35892;BME280;21993;42.672;23.296;2023-04-27T11:22:13;94518.38;;;16.37;33.96
35892;BME280;21993;42.672;23.296;2023-04-27T11:24:47;94520.81;;;16.23;34.40
35892;BME280;21993;42.672;23.296;2023-04-27T11:27:13;94532.38;;;16.22;34.66
35892;BME280;21993;42.672;23.296;2023-04-27T11:29:38;94534.06;;;16.23;33.57
35892;BME280;21993;42.672;23.296;2023-04-27T11:32:04;94536.66;;;16.31;33.56
35892;BME280;21993;42.672;23.296;2023-04-27T11:34:29;94530.22;;;16.26;33.82
35892;BME280;21993;42.672;23.296;2023-04-27T11:37:02;94537.34;;;16.25;34.25
35892;BME280;21993;42.672;23.296;2023-04-27T11:39:36;94540.84;;;16.18;34.14
35892;BME280;21993;42.672;23.296;2023-04-27T11:42:26;94544.84;;;16.14;34.12
35892;BME280;21993;42.672;23.296;2023-04-27T11:44:57;94542.97;;;16.22;33.77
35892;BME280;21993;42.672;23.296;2023-04-27T11:47:25;94546.94;;;16.26;34.19
35892;BME280;21993;42.672;23.296;2023-04-27T11:49:54;94546.41;;;16.31;34.15
35892;BME280;21993;42.672;23.296;2023-04-27T11:52:26;94543.69;;;16.39;33.17
35892;BME280;21993;42.672;23.296;2023-04-27T11:54:53;94559.50;;;16.32;33.77
35892;BME280;21993;42.672;23.296;2023-04-27T11:57:34;94541.63;;;16.26;33.71
35892;BME280;21993;42.672;23.296;2023-04-27T12:00:04;94548.06;;;16.32;33.88
35892;BME280;21993;42.672;23.296;2023-04-27T12:02:36;94543.47;;;16.26;33.27
35892;BME280;21993;42.672;23.296;2023-04-27T12:05:02;94543.50;;;16.18;33.81
35892;BME280;21993;42.672;23.296;2023-04-27T12:07:28;94538.72;;;16.13;33.92
35892;BME280;21993;42.672;23.296;2023-04-27T12:09:53;94544.59;;;16.00;34.64
35892;BME280;21993;42.672;23.296;2023-04-27T12:12:19;94556.97;;;16.08;33.85
35892;BME280;21993;42.672;23.296;2023-04-27T12:14:49;94548.56;;;15.96;34.02
35892;BME280;21993;42.672;23.296;2023-04-27T12:17:14;94553.31;;;16.09;33.88
35892;BME280;21993;42.672;23.296;2023-04-27T12:19:40;94548.41;;;15.98;33.88
35892;BME280;21993;42.672;23.296;2023-04-27T12:22:05;94551.84;;;16.07;34.09
35892;BME280;21993;42.672;23.296;2023-04-27T12:24:31;94560.69;;;16.22;34.44
35892;BME280;21993;42.672;23.296;2023-04-27T12:26:57;94559.06;;;16.13;34.21
35892;BME280;21993;42.672;23.296;2023-04-27T12:29:23;94545.19;;;16.11;34.11
35892;BME280;21993;42.672;23.296;2023-04-27T12:31:49;94554.88;;;16.26;34.34
35892;BME280;21993;42.672;23.296;2023-04-27T12:34:17;94547.53;;;16.37;33.54
35892;BME280;21993;42.672;23.296;2023-04-27T12:36:43;94551.78;;;16.23;34.02
35892;BME280;21993;42.672;23.296;2023-04-27T12:41:37;94561.16;;;15.94;34.43
35892;BME280;21993;42.672;23.296;2023-04-27T12:44:03;94553.31;;;16.09;34.32
35892;BME280;21993;42.672;23.296;2023-04-27T12:46:29;94561.41;;;16.16;34.13
35892;BME280;21993;42.672;23.296;2023-04-27T12:48:55;94564.09;;;16.08;34.02
35892;BME280;21993;42.672;23.296;2023-04-27T12:51:21;94562.31;;;16.00;34.10
35892;BME280;21993;42.672;23.296;2023-04-27T12:53:50;94563.13;;;16.00;33.91
35892;BME280;21993;42.672;23.296;2023-04-27T12:56:16;94564.91;;;16.08;33.91
35892;BME280;21993;42.672;23.296;2023-04-27T12:58:41;94563.22;;;16.15;33.96
35892;BME280;21993;42.672;23.296;2023-04-27T13:01:07;94556.16;;;16.08;34.27
35892;BME280;21993;42.672;23.296;2023-04-27T13:03:40;94556.69;;;15.95;34.57
35892;BME280;21993;42.672;23.296;2023-04-27T13:06:06;94563.03;;;15.77;34.16